sensor_id;sensor_type;location;lat;lon;timestamp;temperature;humidity
21811;DHT22;11067;48.788;9.208;2023-12-29T00:01:29;10.30;99.90
21811;DHT22;11067;48.788;9.208;2023-12-29T00:03:55;10.20;99.90
21811;DHT22;11067;48.788;9.208;2023-12-29T00:06:21;10.30;99.90
21811;DHT22;11067;48.788;9.208;2023-12-29T00:08:46;10.30;99.90
21811;DHT22;11067;48.788;9.208;2023-12-29T00:11:22;10.40;99.90
21811;DHT22;11067;48.788;9.208;2023-12-29T00:13:48;10.30;99.90
21811;DHT22;11067;48.788;9.208;2023-12-29T00:16:15;10.40;99.90
21811;DHT22;11067;48.788;9.208;2023-12-29T00:18:40;10.40;99.90
21811;DHT22;11067;48.788;9.208;2023-12-29T00:21:06;10.40;99.90
21811;DHT22;11067;48.788;9.208;2023-12-29T00:23:32;10.50;99.90
21811;DHT22;11067;48.788;9.208;2023-12-29T00:25:57;10.50;99.90
21811;DHT22;11067;48.788;9.208;2023-12-29T00:28:23;10.60;99.90
21811;DHT22;11067;48.788;9.208;2023-12-29T00:30:48;10.60;99.90
21811;DHT22;11067;48.788;9.208;2023-12-29T00:33:14;10.50;99.90
21811;DHT22;11067;48.788;9.208;2023-12-29T00:35:39;10.40;99.90
21811;DHT22;11067;48.788;9.208;2023-12-29T00:38:05;10.40;99.90
21811;DHT22;11067;48.788;9.208;2023-12-29T00:40:32;10.40;99.90
21811;DHT22;11067;48.788;9.208;2023-12-29T00:42:57;10.30;99.90
21811;DHT22;11067;48.788;9.208;2023-12-29T00:45:23;10.30;99.90
21811;DHT22;11067;48.788;9.208;2023-12-29T00:47:48;10.30;99.90
21811;DHT22;11067;48.788;9.208;2023-12-29T00:50:16;10.40;99.90
21811;DHT22;11067;48.788;9.208;2023-12-29T00:52:41;10.30;99.90
21811;DHT22;11067;48.788;9.208;2023-12-29T00:55:07;10.20;99.90
21811;DHT22;11067;48.788;9.208;2023-12-29T00:57:33;10.30;99.90
21811;DHT22;11067;48.788;9.208;2023-12-29T01:00:00;10.30;99.90
21811;DHT22;11067;48.788;9.208;2023-12-29T01:02:26;10.20;99.90
21811;DHT22;11067;48.788;9.208;2023-12-29T01:04:52;10.30;99.90
21811;DHT22;11067;48.788;9.208;2023-12-29T01:07:17;10.30;99.90
21811;DHT22;11067;48.788;9.208;2023-12-29T01:09:43;10.30;99.90
21811;DHT22;11067;48.788;9.208;2023-12-29T01:12:08;10.30;99.90
21811;DHT22;11067;48.788;9.208;2023-12-29T01:14:34;10.30;99.90
21811;DHT22;11067;48.788;9.208;2023-12-29T01:17:00;10.30;99.90
21811;DHT22;11067;48.788;9.208;2023-12-29T01:19:25;10.30;99.90
21811;DHT22;11067;48.788;9.208;2023-12-29T01:21:51;10.30;99.90
21811;DHT22;11067;48.788;9.208;2023-12-29T01:24:16;10.30;99.90
21811;DHT22;11067;48.788;9.208;2023-12-29T01:26:42;10.30;99.90
21811;DHT22;11067;48.788;9.208;2023-12-29T01:29:07;10.30;99.90
21811;DHT22;11067;48.788;9.208;2023-12-29T01:31:33;10.20;99.90
21811;DHT22;11067;48.788;9.208;2023-12-29T01:33:59;10.20;99.90
21811;DHT22;11067;48.788;9.208;2023-12-29T01:36:25;10.20;99.90
21811;DHT22;11067;48.788;9.208;2023-12-29T01:38:57;10.20;99.90
21811;DHT22;11067;48.788;9.208;2023-12-29T01:41:23;10.20;99.90
21811;DHT22;11067;48.788;9.208;2023-12-29T01:46:31;10.20;99.90
21811;DHT22;11067;48.788;9.208;2023-12-29T01:48:57;10.30;99.90
21811;DHT22;11067;48.788;9.208;2023-12-29T01:51:25;10.30;99.90
21811;DHT22;11067;48.788;9.208;2023-12-29T01:53:53;10.40;99.90
21811;DHT22;11067;48.788;9.208;2023-12-29T01:56:20;10.40;99.90
21811;DHT22;11067;48.788;9.208;2023-12-29T01:58:48;10.40;99.90
21811;DHT22;11067;48.788;9.208;2023-12-29T02:01:14;10.40;99.90
21811;DHT22;11067;48.788;9.208;2023-12-29T02:03:40;10.50;99.90
21811;DHT22;11067;48.788;9.208;2023-12-29T02:06:08;10.40;99.90
21811;DHT22;11067;48.788;9.208;2023-12-29T02:08:36;10.40;99.90
21811;DHT22;11067;48.788;9.208;2023-12-29T02:11:02;10.40;99.90
21811;DHT22;11067;48.788;9.208;2023-12-29T02:13:27;10.40;99.90
21811;DHT22;11067;48.788;9.208;2023-12-29T02:15:54;10.50;99.90
21811;DHT22;11067;48.788;9.208;2023-12-29T02:18:22;10.40;99.90
21811;DHT22;11067;48.788;9.208;2023-12-29T02:20:49;10.40;99.90
21811;DHT22;11067;48.788;9.208;2023-12-29T02:23:14;10.50;99.90
21811;DHT22;11067;48.788;9.208;2023-12-29T02:25:40;10.50;99.90
21811;DHT22;11067;48.788;9.208;2023-12-29T02:28:24;10.50;99.90
21811;DHT22;11067;48.788;9.208;2023-12-29T02:33:22;10.40;99.90
21811;DHT22;11067;48.788;9.208;2023-12-29T02:35:50;10.50;99.90
21811;DHT22;11067;48.788;9.208;2023-12-29T02:38:17;10.50;99.90
21811;DHT22;11067;48.788;9.208;2023-12-29T02:40:43;10.50;99.90
21811;DHT22;11067;48.788;9.208;2023-12-29T02:43:09;10.50;99.90
21811;DHT22;11067;48.788;9.208;2023-12-29T02:45:34;10.50;99.90
21811;DHT22;11067;48.788;9.208;2023-12-29T02:48:00;10.50;99.90
21811;DHT22;11067;48.788;9.208;2023-12-29T02:50:25;10.50;99.90
21811;DHT22;11067;48.788;9.208;2023-12-29T02:52:51;10.50;99.90
21811;DHT22;11067;48.788;9.208;2023-12-29T02:55:17;10.40;99.90
21811;DHT22;11067;48.788;9.208;2023-12-29T02:57:42;10.50;99.90
21811;DHT22;11067;48.788;9.208;2023-12-29T03:00:08;10.50;99.90
21811;DHT22;11067;48.788;9.208;2023-12-29T03:02:34;10.50;99.90
21811;DHT22;11067;48.788;9.208;2023-12-29T03:05:00;10.40;99.90
21811;DHT22;11067;48.788;9.208;2023-12-29T03:07:25;10.40;99.90
21811;DHT22;11067;48.788;9.208;2023-12-29T03:09:51;10.30;99.90
21811;DHT22;11067;48.788;9.208;2023-12-29T03:12:16;10.30;99.90
21811;DHT22;11067;48.788;9.208;2023-12-29T03:14:43;10.30;99.90
21811;DHT22;11067;48.788;9.208;2023-12-29T03:17:09;10.30;99.90
21811;DHT22;11067;48.788;9.208;2023-12-29T03:19:35;10.20;99.90
21811;DHT22;11067;48.788;9.208;2023-12-29T03:22:01;10.10;99.90
21811;DHT22;11067;48.788;9.208;2023-12-29T03:24:28;10.10;99.90
21811;DHT22;11067;48.788;9.208;2023-12-29T03:26:53;10.10;99.90
21811;DHT22;11067;48.788;9.208;2023-12-29T03:29:19;10.10;99.90
21811;DHT22;11067;48.788;9.208;2023-12-29T03:31:45;10.10;99.90
21811;DHT22;11067;48.788;9.208;2023-12-29T03:34:10;10.10;99.90
21811;DHT22;11067;48.788;9.208;2023-12-29T03:36:36;10.10;99.90
21811;DHT22;11067;48.788;9.208;2023-12-29T03:39:01;10.00;99.90
21811;DHT22;11067;48.788;9.208;2023-12-29T03:41:28;10.00;99.90
21811;DHT22;11067;48.788;9.208;2023-12-29T03:43:53;9.90;99.90
21811;DHT22;11067;48.788;9.208;2023-12-29T03:46:20;10.00;99.90
21811;DHT22;11067;48.788;9.208;2023-12-29T03:48:47;9.90;99.90
21811;DHT22;11067;48.788;9.208;2023-12-29T03:51:13;9.90;99.90
21811;DHT22;11067;48.788;9.208;2023-12-29T03:53:39;9.80;99.90
21811;DHT22;11067;48.788;9.208;2023-12-29T03:56:06;9.80;99.90
21811;DHT22;11067;48.788;9.208;2023-12-29T03:58:31;9.80;99.90
21811;DHT22;11067;48.788;9.208;2023-12-29T04:00:57;9.80;99.90
21811;DHT22;11067;48.788;9.208;2023-12-29T04:03:23;9.70;99.90
21811;DHT22;11067;48.788;9.208;2023-12-29T04:05:48;9.70;99.90
21811;DHT22;11067;48.788;9.208;2023-12-29T04:08:14;9.70;99.90
21811;DHT22;11067;48.788;9.208;2023-12-29T04:10:39;9.70;99.90
21811;DHT22;11067;48.788;9.208;2023-12-29T04:13:05;9.80;99.90
21811;DHT22;11067;48.788;9.208;2023-12-29T04:15:30;9.80;99.90
21811;DHT22;11067;48.788;9.208;2023-12-29T04:17:56;9.90;99.90
21811;DHT22;11067;48.788;9.208;2023-12-29T04:20:21;9.90;99.90
21811;DHT22;11067;48.788;9.208;2023-12-29T04:22:47;9.90;99.90
21811;DHT22;11067;48.788;9.208;2023-12-29T04:25:12;9.90;99.90
21811;DHT22;11067;48.788;9.208;2023-12-29T04:27:39;9.90;99.90
21811;DHT22;11067;48.788;9.208;2023-12-29T04:30:06;9.90;99.90
21811;DHT22;11067;48.788;9.208;2023-12-29T04:32:31;9.80;99.90
21811;DHT22;11067;48.788;9.208;2023-12-29T04:34:57;9.80;99.90
21811;DHT22;11067;48.788;9.208;2023-12-29T04:37:22;9.80;99.90
21811;DHT22;11067;48.788;9.208;2023-12-29T04:39:48;9.80;99.90
21811;DHT22;11067;48.788;9.208;2023-12-29T04:42:13;9.70;99.90
21811;DHT22;11067;48.788;9.208;2023-12-29T04:44:39;9.80;99.90
21811;DHT22;11067;48.788;9.208;2023-12-29T04:47:05;9.80;99.90
21811;DHT22;11067;48.788;9.208;2023-12-29T04:49:30;9.80;99.90
21811;DHT22;11067;48.788;9.208;2023-12-29T04:51:56;9.80;99.90
21811;DHT22;11067;48.788;9.208;2023-12-29T04:54:22;9.80;99.90
21811;DHT22;11067;48.788;9.208;2023-12-29T04:56:48;9.80;99.90
21811;DHT22;11067;48.788;9.208;2023-12-29T04:59:13;9.80;99.90
21811;DHT22;11067;48.788;9.208;2023-12-29T05:01:39;9.90;99.90
21811;DHT22;11067;48.788;9.208;2023-12-29T05:04:04;9.90;99.90
21811;DHT22;11067;48.788;9.208;2023-12-29T05:06:30;9.80;99.90
21811;DHT22;11067;48.788;9.208;2023-12-29T05:08:55;9.80;99.90
21811;DHT22;11067;48.788;9.208;2023-12-29T05:11:21;9.80;99.90
21811;DHT22;11067;48.788;9.208;2023-12-29T05:13:46;9.90;99.90
21811;DHT22;11067;48.788;9.208;2023-12-29T05:16:13;9.90;99.90
21811;DHT22;11067;48.788;9.208;2023-12-29T05:18:38;10.00;99.90
21811;DHT22;11067;48.788;9.208;2023-12-29T05:21:05;10.10;99.90
21811;DHT22;11067;48.788;9.208;2023-12-29T05:23:30;10.10;99.90
21811;DHT22;11067;48.788;9.208;2023-12-29T05:25:56;10.10;99.90
21811;DHT22;11067;48.788;9.208;2023-12-29T05:28:22;10.10;99.90
21811;DHT22;11067;48.788;9.208;2023-12-29T05:30:47;10.10;99.90
21811;DHT22;11067;48.788;9.208;2023-12-29T05:33:13;10.00;99.90
21811;DHT22;11067;48.788;9.208;2023-12-29T05:35:38;9.90;99.90
21811;DHT22;11067;48.788;9.208;2023-12-29T05:38:04;9.90;99.90
21811;DHT22;11067;48.788;9.208;2023-12-29T05:40:29;9.90;99.90
21811;DHT22;11067;48.788;9.208;2023-12-29T05:42:55;9.90;99.90
21811;DHT22;11067;48.788;9.208;2023-12-29T05:45:20;9.90;99.90
21811;DHT22;11067;48.788;9.208;2023-12-29T05:47:46;9.80;99.90
21811;DHT22;11067;48.788;9.208;2023-12-29T05:50:11;9.80;99.90
21811;DHT22;11067;48.788;9.208;2023-12-29T05:52:37;9.90;99.90
21811;DHT22;11067;48.788;9.208;2023-12-29T05:55:03;9.80;99.90
21811;DHT22;11067;48.788;9.208;2023-12-29T05:57:28;9.80;99.90
21811;DHT22;11067;48.788;9.208;2023-12-29T05:59:54;9.80;99.90
21811;DHT22;11067;48.788;9.208;2023-12-29T06:02:19;9.80;99.90
21811;DHT22;11067;48.788;9.208;2023-12-29T06:04:45;9.80;99.90
21811;DHT22;11067;48.788;9.208;2023-12-29T06:07:11;9.80;99.90
21811;DHT22;11067;48.788;9.208;2023-12-29T06:09:36;9.70;99.90
21811;DHT22;11067;48.788;9.208;2023-12-29T06:12:02;9.70;99.90
21811;DHT22;11067;48.788;9.208;2023-12-29T06:14:27;9.70;99.90
21811;DHT22;11067;48.788;9.208;2023-12-29T06:16:53;9.70;99.90
21811;DHT22;11067;48.788;9.208;2023-12-29T06:19:18;9.70;99.90
21811;DHT22;11067;48.788;9.208;2023-12-29T06:21:44;9.70;99.90
21811;DHT22;11067;48.788;9.208;2023-12-29T06:24:10;9.70;99.90
21811;DHT22;11067;48.788;9.208;2023-12-29T06:26:36;9.70;99.90
21811;DHT22;11067;48.788;9.208;2023-12-29T06:29:07;9.70;99.90
21811;DHT22;11067;48.788;9.208;2023-12-29T06:31:33;9.70;99.90
21811;DHT22;11067;48.788;9.208;2023-12-29T06:33:59;9.60;99.90
21811;DHT22;11067;48.788;9.208;2023-12-29T06:36:25;9.60;99.90
21811;DHT22;11067;48.788;9.208;2023-12-29T06:38:51;9.60;99.90
21811;DHT22;11067;48.788;9.208;2023-12-29T06:41:18;9.60;99.90
21811;DHT22;11067;48.788;9.208;2023-12-29T06:43:44;9.50;99.90
21811;DHT22;11067;48.788;9.208;2023-12-29T06:46:09;9.60;99.90
21811;DHT22;11067;48.788;9.208;2023-12-29T06:48:36;9.60;99.90
21811;DHT22;11067;48.788;9.208;2023-12-29T06:51:01;9.60;99.90
21811;DHT22;11067;48.788;9.208;2023-12-29T06:53:27;9.60;99.90
21811;DHT22;11067;48.788;9.208;2023-12-29T06:55:52;9.60;99.90
21811;DHT22;11067;48.788;9.208;2023-12-29T06:58:18;9.60;99.90
21811;DHT22;11067;48.788;9.208;2023-12-29T07:00:43;9.60;99.90
21811;DHT22;11067;48.788;9.208;2023-12-29T07:03:12;9.60;99.90
21811;DHT22;11067;48.788;9.208;2023-12-29T07:05:37;9.70;99.90
21811;DHT22;11067;48.788;9.208;2023-12-29T07:08:03;9.90;99.90
21811;DHT22;11067;48.788;9.208;2023-12-29T07:10:28;10.00;99.90
21811;DHT22;11067;48.788;9.208;2023-12-29T07:12:54;10.00;99.90
21811;DHT22;11067;48.788;9.208;2023-12-29T07:15:20;10.00;99.90
21811;DHT22;11067;48.788;9.208;2023-12-29T07:17:45;9.90;99.90
21811;DHT22;11067;48.788;9.208;2023-12-29T07:20:11;10.00;99.90
21811;DHT22;11067;48.788;9.208;2023-12-29T07:22:36;10.00;99.90
21811;DHT22;11067;48.788;9.208;2023-12-29T07:25:02;10.00;99.90
21811;DHT22;11067;48.788;9.208;2023-12-29T07:27:28;10.00;99.90
21811;DHT22;11067;48.788;9.208;2023-12-29T07:29:53;10.00;99.90
21811;DHT22;11067;48.788;9.208;2023-12-29T07:32:19;10.00;99.90
21811;DHT22;11067;48.788;9.208;2023-12-29T07:34:44;10.00;99.90
21811;DHT22;11067;48.788;9.208;2023-12-29T07:37:10;10.00;99.90
21811;DHT22;11067;48.788;9.208;2023-12-29T07:39:38;9.90;99.90
21811;DHT22;11067;48.788;9.208;2023-12-29T07:42:04;9.90;99.90
21811;DHT22;11067;48.788;9.208;2023-12-29T07:44:29;10.00;99.90
21811;DHT22;11067;48.788;9.208;2023-12-29T07:46:57;10.00;99.90
21811;DHT22;11067;48.788;9.208;2023-12-29T07:49:23;10.00;99.90
21811;DHT22;11067;48.788;9.208;2023-12-29T07:51:48;10.00;99.90
21811;DHT22;11067;48.788;9.208;2023-12-29T07:54:14;10.20;99.90
21811;DHT22;11067;48.788;9.208;2023-12-29T07:56:39;10.20;99.90
21811;DHT22;11067;48.788;9.208;2023-12-29T07:59:05;10.30;99.90
21811;DHT22;11067;48.788;9.208;2023-12-29T08:01:31;10.30;99.90
21811;DHT22;11067;48.788;9.208;2023-12-29T08:03:57;10.30;99.90
21811;DHT22;11067;48.788;9.208;2023-12-29T08:06:22;10.40;99.90
21811;DHT22;11067;48.788;9.208;2023-12-29T08:08:48;10.50;99.90
21811;DHT22;11067;48.788;9.208;2023-12-29T08:11:17;10.60;99.90
21811;DHT22;11067;48.788;9.208;2023-12-29T08:13:47;10.50;99.90
21811;DHT22;11067;48.788;9.208;2023-12-29T08:16:13;10.50;99.90
21811;DHT22;11067;48.788;9.208;2023-12-29T08:18:38;10.50;99.90
21811;DHT22;11067;48.788;9.208;2023-12-29T08:21:04;10.60;99.90
21811;DHT22;11067;48.788;9.208;2023-12-29T08:23:29;10.60;99.90
21811;DHT22;11067;48.788;9.208;2023-12-29T08:25:58;10.60;99.90
21811;DHT22;11067;48.788;9.208;2023-12-29T08:28:26;10.60;99.90
21811;DHT22;11067;48.788;9.208;2023-12-29T08:30:51;10.60;99.90
21811;DHT22;11067;48.788;9.208;2023-12-29T08:33:17;10.60;99.90
21811;DHT22;11067;48.788;9.208;2023-12-29T08:35:44;10.60;99.90
21811;DHT22;11067;48.788;9.208;2023-12-29T08:38:11;10.70;99.90
21811;DHT22;11067;48.788;9.208;2023-12-29T08:40:37;10.70;99.90
21811;DHT22;11067;48.788;9.208;2023-12-29T08:43:02;10.70;99.90
21811;DHT22;11067;48.788;9.208;2023-12-29T08:45:28;10.70;99.90
21811;DHT22;11067;48.788;9.208;2023-12-29T08:47:53;10.80;99.90
21811;DHT22;11067;48.788;9.208;2023-12-29T08:50:19;10.70;99.90
21811;DHT22;11067;48.788;9.208;2023-12-29T08:52:45;10.70;99.90
21811;DHT22;11067;48.788;9.208;2023-12-29T08:55:10;10.70;99.90
21811;DHT22;11067;48.788;9.208;2023-12-29T08:57:36;10.70;99.90
21811;DHT22;11067;48.788;9.208;2023-12-29T09:00:02;10.70;99.90
21811;DHT22;11067;48.788;9.208;2023-12-29T09:02:28;10.70;99.90
21811;DHT22;11067;48.788;9.208;2023-12-29T09:04:53;10.80;99.90
21811;DHT22;11067;48.788;9.208;2023-12-29T09:07:19;10.80;99.90
21811;DHT22;11067;48.788;9.208;2023-12-29T09:09:44;10.80;99.90
21811;DHT22;11067;48.788;9.208;2023-12-29T09:12:10;10.80;99.90
21811;DHT22;11067;48.788;9.208;2023-12-29T09:14:35;10.80;99.90
21811;DHT22;11067;48.788;9.208;2023-12-29T09:17:01;10.80;99.90
21811;DHT22;11067;48.788;9.208;2023-12-29T09:19:27;10.70;99.90
21811;DHT22;11067;48.788;9.208;2023-12-29T09:21:53;10.80;99.90
21811;DHT22;11067;48.788;9.208;2023-12-29T09:24:18;10.90;99.90
21811;DHT22;11067;48.788;9.208;2023-12-29T09:26:44;11.00;99.90
21811;DHT22;11067;48.788;9.208;2023-12-29T09:29:09;11.00;99.90
21811;DHT22;11067;48.788;9.208;2023-12-29T09:31:35;11.10;99.90
21811;DHT22;11067;48.788;9.208;2023-12-29T09:34:01;11.20;99.90
21811;DHT22;11067;48.788;9.208;2023-12-29T09:36:27;11.40;99.90
21811;DHT22;11067;48.788;9.208;2023-12-29T09:39:00;11.60;99.90
21811;DHT22;11067;48.788;9.208;2023-12-29T09:41:26;11.70;99.90
21811;DHT22;11067;48.788;9.208;2023-12-29T09:43:53;11.60;99.90
21811;DHT22;11067;48.788;9.208;2023-12-29T09:46:21;11.40;99.90
21811;DHT22;11067;48.788;9.208;2023-12-29T09:48:47;11.40;99.90
21811;DHT22;11067;48.788;9.208;2023-12-29T09:51:15;11.40;99.90
21811;DHT22;11067;48.788;9.208;2023-12-29T09:53:41;11.30;99.90
21811;DHT22;11067;48.788;9.208;2023-12-29T09:56:08;11.30;99.90
21811;DHT22;11067;48.788;9.208;2023-12-29T09:58:35;11.40;99.90
21811;DHT22;11067;48.788;9.208;2023-12-29T10:01:03;11.40;99.90
21811;DHT22;11067;48.788;9.208;2023-12-29T10:03:30;11.40;99.90
21811;DHT22;11067;48.788;9.208;2023-12-29T10:05:56;11.50;99.90
21811;DHT22;11067;48.788;9.208;2023-12-29T10:08:24;11.70;99.90
21811;DHT22;11067;48.788;9.208;2023-12-29T10:10:51;11.70;99.90
21811;DHT22;11067;48.788;9.208;2023-12-29T10:13:18;11.90;99.90
21811;DHT22;11067;48.788;9.208;2023-12-29T10:15:54;11.80;99.90
21811;DHT22;11067;48.788;9.208;2023-12-29T10:18:31;11.80;99.90
21811;DHT22;11067;48.788;9.208;2023-12-29T10:21:17;12.00;99.90
21811;DHT22;11067;48.788;9.208;2023-12-29T10:23:56;11.90;99.90
21811;DHT22;11067;48.788;9.208;2023-12-29T10:26:23;11.90;99.90
21811;DHT22;11067;48.788;9.208;2023-12-29T10:28:49;12.10;99.90
21811;DHT22;11067;48.788;9.208;2023-12-29T10:31:15;12.00;99.90
21811;DHT22;11067;48.788;9.208;2023-12-29T10:33:44;12.00;99.90
21811;DHT22;11067;48.788;9.208;2023-12-29T10:36:15;11.80;99.90
21811;DHT22;11067;48.788;9.208;2023-12-29T10:38:41;11.90;99.90
21811;DHT22;11067;48.788;9.208;2023-12-29T10:41:17;12.00;99.90
21811;DHT22;11067;48.788;9.208;2023-12-29T10:43:45;11.90;99.90
21811;DHT22;11067;48.788;9.208;2023-12-29T10:46:12;12.00;99.90
21811;DHT22;11067;48.788;9.208;2023-12-29T10:48:38;12.10;99.90
21811;DHT22;11067;48.788;9.208;2023-12-29T10:51:05;12.20;99.90
21811;DHT22;11067;48.788;9.208;2023-12-29T10:53:35;12.10;99.90
21811;DHT22;11067;48.788;9.208;2023-12-29T10:56:01;12.30;99.90
21811;DHT22;11067;48.788;9.208;2023-12-29T10:58:27;12.30;99.90
21811;DHT22;11067;48.788;9.208;2023-12-29T11:00:57;12.50;99.90
21811;DHT22;11067;48.788;9.208;2023-12-29T11:03:23;12.50;99.90
21811;DHT22;11067;48.788;9.208;2023-12-29T11:05:50;12.50;99.90
21811;DHT22;11067;48.788;9.208;2023-12-29T11:08:19;12.60;99.90
21811;DHT22;11067;48.788;9.208;2023-12-29T11:10:47;12.70;99.90
21811;DHT22;11067;48.788;9.208;2023-12-29T11:13:13;12.60;99.90
21811;DHT22;11067;48.788;9.208;2023-12-29T11:15:43;12.60;99.90
21811;DHT22;11067;48.788;9.208;2023-12-29T11:18:14;12.50;99.90
21811;DHT22;11067;48.788;9.208;2023-12-29T11:20:41;12.50;99.90
21811;DHT22;11067;48.788;9.208;2023-12-29T11:23:09;12.50;99.90
21811;DHT22;11067;48.788;9.208;2023-12-29T11:25:35;12.50;99.90
21811;DHT22;11067;48.788;9.208;2023-12-29T11:28:06;12.60;99.90
21811;DHT22;11067;48.788;9.208;2023-12-29T11:30:33;12.50;99.90
21811;DHT22;11067;48.788;9.208;2023-12-29T11:33:03;12.60;99.90
21811;DHT22;11067;48.788;9.208;2023-12-29T11:35:43;12.50;99.90
21811;DHT22;11067;48.788;9.208;2023-12-29T11:38:36;12.50;99.90
21811;DHT22;11067;48.788;9.208;2023-12-29T11:43:36;12.50;99.90
21811;DHT22;11067;48.788;9.208;2023-12-29T11:46:02;12.30;99.90
21811;DHT22;11067;48.788;9.208;2023-12-29T11:48:53;12.30;99.90
21811;DHT22;11067;48.788;9.208;2023-12-29T11:51:39;12.30;99.90
21811;DHT22;11067;48.788;9.208;2023-12-29T11:54:06;12.30;99.90
21811;DHT22;11067;48.788;9.208;2023-12-29T11:56:35;12.30;99.90
21811;DHT22;11067;48.788;9.208;2023-12-29T11:59:20;12.40;99.90
21811;DHT22;11067;48.788;9.208;2023-12-29T12:01:47;12.40;99.90
21811;DHT22;11067;48.788;9.208;2023-12-29T12:04:36;12.40;99.90
21811;DHT22;11067;48.788;9.208;2023-12-29T12:07:17;12.50;99.90
21811;DHT22;11067;48.788;9.208;2023-12-29T12:12:48;12.60;99.90
21811;DHT22;11067;48.788;9.208;2023-12-29T12:17:58;12.70;99.90
21811;DHT22;11067;48.788;9.208;2023-12-29T12:20:24;12.80;99.90
21811;DHT22;11067;48.788;9.208;2023-12-29T12:23:03;12.60;99.90
21811;DHT22;11067;48.788;9.208;2023-12-29T12:25:31;12.70;99.90
21811;DHT22;11067;48.788;9.208;2023-12-29T12:28:01;12.80;99.90
21811;DHT22;11067;48.788;9.208;2023-12-29T12:30:30;12.80;99.90
21811;DHT22;11067;48.788;9.208;2023-12-29T12:33:00;12.80;99.90
21811;DHT22;11067;48.788;9.208;2023-12-29T12:35:26;12.70;98.50
21811;DHT22;11067;48.788;9.208;2023-12-29T12:40:36;12.70;99.90
21811;DHT22;11067;48.788;9.208;2023-12-29T12:43:03;12.80;99.90
21811;DHT22;11067;48.788;9.208;2023-12-29T12:45:29;12.90;99.90
21811;DHT22;11067;48.788;9.208;2023-12-29T12:48:13;13.00;98.10
21811;DHT22;11067;48.788;9.208;2023-12-29T12:50:44;13.20;95.60
21811;DHT22;11067;48.788;9.208;2023-12-29T12:53:12;13.20;94.40
21811;DHT22;11067;48.788;9.208;2023-12-29T12:55:40;13.10;94.40
21811;DHT22;11067;48.788;9.208;2023-12-29T12:58:06;13.20;95.10
21811;DHT22;11067;48.788;9.208;2023-12-29T13:00:32;13.20;98.10
21811;DHT22;11067;48.788;9.208;2023-12-29T13:02:59;13.40;96.10
21811;DHT22;11067;48.788;9.208;2023-12-29T13:05:25;13.50;93.20
21811;DHT22;11067;48.788;9.208;2023-12-29T13:07:54;13.50;93.80
21811;DHT22;11067;48.788;9.208;2023-12-29T13:10:21;13.50;95.90
21811;DHT22;11067;48.788;9.208;2023-12-29T13:12:53;13.50;95.10
21811;DHT22;11067;48.788;9.208;2023-12-29T13:15:20;13.40;96.80
21811;DHT22;11067;48.788;9.208;2023-12-29T13:17:52;13.30;93.10
21811;DHT22;11067;48.788;9.208;2023-12-29T13:20:18;13.40;94.70
21811;DHT22;11067;48.788;9.208;2023-12-29T13:22:47;13.40;93.70
21811;DHT22;11067;48.788;9.208;2023-12-29T13:25:18;13.30;91.80
21811;DHT22;11067;48.788;9.208;2023-12-29T13:27:45;13.30;92.30
21811;DHT22;11067;48.788;9.208;2023-12-29T13:30:11;13.20;90.70
21811;DHT22;11067;48.788;9.208;2023-12-29T13:32:38;13.10;88.70
21811;DHT22;11067;48.788;9.208;2023-12-29T13:35:24;13.00;84.20
21811;DHT22;11067;48.788;9.208;2023-12-29T13:38:03;13.00;82.80
21811;DHT22;11067;48.788;9.208;2023-12-29T13:43:14;12.90;86.20
21811;DHT22;11067;48.788;9.208;2023-12-29T13:45:41;12.90;81.50
21811;DHT22;11067;48.788;9.208;2023-12-29T13:48:09;13.00;81.80
21811;DHT22;11067;48.788;9.208;2023-12-29T13:50:34;12.90;83.00
21811;DHT22;11067;48.788;9.208;2023-12-29T13:53:00;12.80;77.90
21811;DHT22;11067;48.788;9.208;2023-12-29T13:55:26;12.80;78.00
21811;DHT22;11067;48.788;9.208;2023-12-29T13:57:52;12.70;80.70
21811;DHT22;11067;48.788;9.208;2023-12-29T14:00:19;12.70;79.90
21811;DHT22;11067;48.788;9.208;2023-12-29T14:03:02;12.70;82.30
21811;DHT22;11067;48.788;9.208;2023-12-29T14:05:55;12.80;82.00
21811;DHT22;11067;48.788;9.208;2023-12-29T14:08:26;12.70;80.00
21811;DHT22;11067;48.788;9.208;2023-12-29T14:10:52;12.80;77.50
21811;DHT22;11067;48.788;9.208;2023-12-29T14:13:19;12.80;72.10
21811;DHT22;11067;48.788;9.208;2023-12-29T14:15:46;12.80;73.20
21811;DHT22;11067;48.788;9.208;2023-12-29T14:21:27;12.80;73.30
21811;DHT22;11067;48.788;9.208;2023-12-29T14:24:07;12.70;72.60
21811;DHT22;11067;48.788;9.208;2023-12-29T14:26:33;12.70;71.30
21811;DHT22;11067;48.788;9.208;2023-12-29T14:29:06;12.60;71.40
21811;DHT22;11067;48.788;9.208;2023-12-29T14:31:34;12.60;72.70
21811;DHT22;11067;48.788;9.208;2023-12-29T14:34:01;12.60;74.30
21811;DHT22;11067;48.788;9.208;2023-12-29T14:36:26;12.60;72.30
21811;DHT22;11067;48.788;9.208;2023-12-29T14:38:57;12.60;76.80
21811;DHT22;11067;48.788;9.208;2023-12-29T14:41:23;12.50;76.10
21811;DHT22;11067;48.788;9.208;2023-12-29T14:43:49;12.60;75.10
21811;DHT22;11067;48.788;9.208;2023-12-29T14:46:15;12.60;73.10
21811;DHT22;11067;48.788;9.208;2023-12-29T14:48:40;12.50;72.20
21811;DHT22;11067;48.788;9.208;2023-12-29T14:51:07;12.50;73.10
21811;DHT22;11067;48.788;9.208;2023-12-29T14:53:32;12.50;72.70
21811;DHT22;11067;48.788;9.208;2023-12-29T14:55:58;12.60;73.10
21811;DHT22;11067;48.788;9.208;2023-12-29T14:58:24;12.50;69.30
21811;DHT22;11067;48.788;9.208;2023-12-29T15:00:50;12.50;68.00
21811;DHT22;11067;48.788;9.208;2023-12-29T15:03:15;12.50;68.50
21811;DHT22;11067;48.788;9.208;2023-12-29T15:05:43;12.50;72.10
21811;DHT22;11067;48.788;9.208;2023-12-29T15:08:08;12.50;72.70
21811;DHT22;11067;48.788;9.208;2023-12-29T15:10:34;12.40;71.10
21811;DHT22;11067;48.788;9.208;2023-12-29T15:13:01;12.40;73.40
21811;DHT22;11067;48.788;9.208;2023-12-29T15:15:27;12.30;73.40
21811;DHT22;11067;48.788;9.208;2023-12-29T15:17:52;12.30;74.70
21811;DHT22;11067;48.788;9.208;2023-12-29T15:20:18;12.30;70.60
21811;DHT22;11067;48.788;9.208;2023-12-29T15:22:43;12.20;73.40
21811;DHT22;11067;48.788;9.208;2023-12-29T15:25:09;12.20;70.60
21811;DHT22;11067;48.788;9.208;2023-12-29T15:27:35;12.10;71.90
21811;DHT22;11067;48.788;9.208;2023-12-29T15:30:01;12.10;73.00
21811;DHT22;11067;48.788;9.208;2023-12-29T15:32:26;12.00;69.20
21811;DHT22;11067;48.788;9.208;2023-12-29T15:34:52;12.00;71.00
21811;DHT22;11067;48.788;9.208;2023-12-29T15:37:17;11.90;74.20
21811;DHT22;11067;48.788;9.208;2023-12-29T15:39:44;11.90;76.90
21811;DHT22;11067;48.788;9.208;2023-12-29T15:42:10;11.90;77.10
21811;DHT22;11067;48.788;9.208;2023-12-29T15:44:36;11.90;77.90
21811;DHT22;11067;48.788;9.208;2023-12-29T15:47:01;11.90;76.20
21811;DHT22;11067;48.788;9.208;2023-12-29T15:49:27;11.90;74.60
21811;DHT22;11067;48.788;9.208;2023-12-29T15:51:52;11.90;75.30
21811;DHT22;11067;48.788;9.208;2023-12-29T15:54:18;11.90;79.00
21811;DHT22;11067;48.788;9.208;2023-12-29T15:56:43;11.90;77.20